Linn, West Virginia
Current Conditions -  °F | °C
As of 10:55 AM on Wednesday 28 Jan 2015 (Local Time) from KW22 Reporting Station
Overcast Overcast  
Wind Chill:   Ceiling: 1400
Heat Index: 18°   Visibility: 10mi
Dew Point: 12°   Wind: 7mph
Humidity: 79%   Direction: 240°WSW
Pressure: 30.32"   Gusts: NA
Location:  39.01°N, 80.72°W
Report Text: KW22 281555Z AUTO 24006KT 10SM FEW002 OVC014 M08/M11 A3032 RMK AO2
Loading
Personal Weather Stations






























Interactive Weather Map New forecast layout! Learn more

10-Day Weather Forecast

Advertisements
Track Severe Weather on mobile